East Norwich, New York
Current Conditions -  °F | °C
As of 7:53 PM on Monday 22 Dec 2014 (Local Time) from KFRG Reporting Station
Overcast Overcast  
Wind Chill: 41°   Ceiling: 1800
Heat Index: 45°   Visibility: 10mi
Dew Point: 40°   Wind: 7mph
Humidity: 82%   Direction: 70°ENE
Pressure: 30.23"   Gusts: NA
Location:  40.85°N, 73.53°W
Report Text: KFRG 230053Z 07006KT 10SM OVC018 07/04 A3023 RMK AO2 SLP236 T00720044
Loading
Personal Weather Stations






























Interactive Weather Map New forecast layout! Learn more

10-Day Weather Forecast

Advertisements
Track Severe Weather on mobile